Time;durP1;ratioP1;P1;durP2;ratioP2;P2;SDS_P1;SDS_P2;PMS_P1;PMS_P2;Temp;Humidity;BMP_temperature;BMP_pressure;BME280_temperature;BME280_humidity;BME280_pressure;Samples;Min_cycle;Max_cycle;Signal;HPM_P1;HPM_P2
2023/03/08 00:00:31;;;;;;;4.18;1.30;;;2.50;99.90;;;;;;5098785;28;20048;-71
2023/03/08 00:02:57;;;;;;;3.97;1.10;;;2.40;99.90;;;;;;5099033;28;20111;-71
2023/03/08 00:05:23;;;;;;;4.85;1.05;;;2.40;99.90;;;;;;5097319;28;20047;-72
2023/03/08 00:18:45;;;;;;;5.00;1.10;;;2.60;99.90;;;;;;4876370;29;20136;-71
2023/03/08 00:21:16;;;;;;;6.55;1.30;;;2.70;99.90;;;;;;4867665;29;20132;-72
2023/03/08 00:23:43;;;;;;;3.22;1.15;;;2.70;99.90;;;;;;4884505;29;20076;-72
2023/03/08 00:26:10;;;;;;;2.00;1.00;;;2.60;99.90;;;;;;4867421;29;20045;-71
2023/03/08 00:28:36;;;;;;;3.47;1.08;;;2.70;99.90;;;;;;4884091;29;20052;-71
2023/03/08 00:31:04;;;;;;;5.18;1.42;;;2.90;99.90;;;;;;4884086;29;20049;-71
2023/03/08 00:33:31;;;;;;;2.83;0.82;;;2.80;99.90;;;;;;4883985;29;20333;-71
2023/03/08 00:36:20;;;;;;;2.70;1.20;;;2.60;99.90;;;;;;4883973;29;20048;-71
2023/03/08 00:38:47;;;;;;;3.88;1.00;;;2.60;99.90;;;;;;4884246;29;20077;-71
2023/03/08 00:41:13;;;;;;;1.75;0.82;;;2.60;99.90;;;;;;4884081;29;20057;-71
2023/03/08 00:43:41;;;;;;;5.07;1.05;;;2.70;99.90;;;;;;4883820;29;20472;-71
2023/03/08 00:46:06;;;;;;;3.03;0.80;;;2.60;99.90;;;;;;4884075;29;20048;-71
2023/03/08 00:48:32;;;;;;;2.42;0.90;;;2.70;99.90;;;;;;4883585;29;20045;-71
2023/03/08 00:50:58;;;;;;;3.40;0.90;;;2.80;99.90;;;;;;4883990;29;20112;-71
2023/03/08 00:53:24;;;;;;;4.63;1.15;;;2.70;99.90;;;;;;4883927;29;20084;-71
2023/03/08 00:55:55;;;;;;;3.95;1.00;;;2.70;99.90;;;;;;4883827;29;20084;-72
2023/03/08 00:58:22;;;;;;;3.20;1.20;;;2.50;99.90;;;;;;4883896;29;20048;-72
2023/03/08 01:00:48;;;;;;;1.55;0.90;;;2.40;99.90;;;;;;4883781;29;20349;-71
2023/03/08 01:03:15;;;;;;;4.40;1.00;;;2.50;99.90;;;;;;4882902;29;20056;-72
2023/03/08 01:05:43;;;;;;;2.03;1.10;;;2.50;99.90;;;;;;4883481;29;20132;-72
2023/03/08 01:08:09;;;;;;;4.40;1.20;;;2.50;99.90;;;;;;4883702;29;20080;-71
2023/03/08 01:10:35;;;;;;;3.25;0.98;;;2.40;99.90;;;;;;4883692;29;20125;-71
2023/03/08 01:13:03;;;;;;;4.28;1.20;;;2.40;99.90;;;;;;4883596;29;20415;-71
2023/03/08 01:15:29;;;;;;;3.80;1.33;;;2.30;99.90;;;;;;4883571;29;20344;-71
2023/03/08 01:17:55;;;;;;;4.60;1.27;;;2.30;99.90;;;;;;4882877;29;20120;-71
2023/03/08 01:20:20;;;;;;;3.72;1.30;;;2.20;99.90;;;;;;4883380;29;20067;-71
2023/03/08 01:22:46;;;;;;;2.85;1.10;;;2.10;99.90;;;;;;4883468;29;20041;-71
2023/03/08 01:25:12;;;;;;;4.30;1.02;;;1.90;99.90;;;;;;4883192;29;20053;-71
2023/03/08 01:30:34;;;;;;;4.40;1.08;;;2.20;99.90;;;;;;4883354;29;20048;-71
2023/03/08 01:32:59;;;;;;;2.78;0.95;;;2.20;99.90;;;;;;4883355;29;20088;-71
2023/03/08 01:38:23;;;;;;;5.55;1.00;;;2.50;99.90;;;;;;4789497;30;20376;-71
2023/03/08 01:40:53;;;;;;;2.90;1.00;;;2.50;99.90;;;;;;4789768;30;20116;-71
2023/03/08 01:43:34;;;;;;;4.13;0.65;;;2.50;99.90;;;;;;4840077;29;20049;-71
2023/03/08 01:46:15;;;;;;;2.58;0.73;;;2.40;99.90;;;;;;4883167;29;20044;-71
2023/03/08 01:49:06;;;;;;;2.92;0.90;;;2.50;99.90;;;;;;4866007;29;20092;-71
2023/03/08 01:52:05;;;;;;;3.10;0.70;;;2.60;99.90;;;;;;4866297;29;20083;-71
2023/03/08 01:54:42;;;;;;;1.85;0.70;;;2.60;99.90;;;;;;4883003;29;20044;-71
2023/03/08 01:57:10;;;;;;;;;;;2.60;99.90;;;;;;4883558;29;20049;-71
2023/03/08 01:59:37;;;;;;;6.53;1.20;;;2.60;99.90;;;;;;4883137;29;19919;-71
2023/03/08 02:02:03;;;;;;;2.05;0.50;;;2.50;99.90;;;;;;4882635;29;20084;-71
2023/03/08 02:04:29;;;;;;;2.35;0.65;;;2.60;99.90;;;;;;4882594;29;20037;-71
2023/03/08 02:06:55;;;;;;;7.20;0.80;;;2.60;99.90;;;;;;4882907;29;20046;-71
2023/03/08 02:09:21;;;;;;;2.00;0.80;;;2.50;99.90;;;;;;4882588;29;20376;-71
2023/03/08 02:11:47;;;;;;;2.67;0.60;;;2.60;99.90;;;;;;4882860;29;20053;-71
2023/03/08 02:14:13;;;;;;;7.50;0.90;;;2.50;99.90;;;;;;4882810;29;20045;-72
2023/03/08 02:16:39;;;;;;;2.35;0.85;;;2.40;99.90;;;;;;4882236;29;20051;-71
2023/03/08 02:19:19;;;;;;;2.45;0.70;;;2.50;99.90;;;;;;4882853;29;20045;-71
2023/03/08 02:21:45;;;;;;;4.85;0.80;;;2.50;99.90;;;;;;4882737;29;20042;-71
2023/03/08 02:24:24;;;;;;;4.32;0.80;;;2.30;99.90;;;;;;4883069;29;20093;-71
2023/03/08 02:26:56;;;;;;;3.22;1.17;;;2.00;99.90;;;;;;4882731;29;20045;-71
2023/03/08 02:29:21;;;;;;;2.58;0.80;;;1.80;99.90;;;;;;4882430;29;20045;-71
2023/03/08 02:31:47;;;;;;;5.25;1.20;;;1.90;99.90;;;;;;4882683;29;20055;-73
2023/03/08 02:34:13;;;;;;;2.67;1.35;;;1.80;99.90;;;;;;4865979;29;20128;-71
2023/03/08 02:36:38;;;;;;;3.92;0.77;;;1.70;99.90;;;;;;4882309;29;20093;-71
2023/03/08 02:39:04;;;;;;;3.65;0.80;;;1.80;99.90;;;;;;4882351;29;20053;-71
2023/03/08 02:41:30;;;;;;;3.90;1.00;;;1.90;99.90;;;;;;4882232;29;20049;-71
2023/03/08 02:43:55;;;;;;;5.80;1.17;;;1.90;99.90;;;;;;4882295;29;20072;-71
2023/03/08 02:46:21;;;;;;;4.28;1.77;;;1.90;99.90;;;;;;4866129;29;20041;-71
2023/03/08 02:48:48;;;;;;;4.15;0.93;;;2.00;99.90;;;;;;4882184;29;20087;-71
2023/03/08 02:51:13;;;;;;;3.33;1.00;;;2.10;99.90;;;;;;4882528;29;20094;-71
2023/03/08 02:53:39;;;;;;;4.97;1.02;;;2.20;99.90;;;;;;4882517;29;20044;-71
2023/03/08 02:56:05;;;;;;;2.90;0.65;;;2.20;99.90;;;;;;4865964;29;20055;-71
2023/03/08 02:58:30;;;;;;;6.40;1.02;;;2.20;99.90;;;;;;4882483;29;20097;-71
2023/03/08 03:00:56;;;;;;;2.60;1.05;;;2.30;99.90;;;;;;4882373;29;20049;-71
2023/03/08 03:03:22;;;;;;;2.05;1.00;;;2.40;99.90;;;;;;4882452;29;20037;-71
2023/03/08 03:05:47;;;;;;;5.65;0.98;;;2.40;99.90;;;;;;4882429;29;20045;-71
2023/03/08 03:08:13;;;;;;;3.88;0.80;;;2.40;99.90;;;;;;4881473;29;20076;-71
2023/03/08 03:10:39;;;;;;;1.95;0.73;;;2.20;99.90;;;;;;4882397;29;20105;-71
2023/03/08 03:13:05;;;;;;;5.93;0.73;;;2.30;99.90;;;;;;4884066;29;20053;-71
2023/03/08 03:15:32;;;;;;;6.97;1.00;;;2.40;99.90;;;;;;4869245;29;20045;-71
2023/03/08 03:17:57;;;;;;;3.08;0.80;;;2.50;99.90;;;;;;4884812;29;20065;-71
2023/03/08 03:20:24;;;;;;;2.50;1.00;;;2.50;99.90;;;;;;4885560;29;20049;-71
2023/03/08 03:22:49;;;;;;;3.97;0.80;;;2.40;99.90;;;;;;4885601;29;20049;-71
2023/03/08 03:25:15;;;;;;;5.22;0.98;;;2.40;99.90;;;;;;4885540;29;20047;-71
2023/03/08 03:27:41;;;;;;;3.35;0.82;;;2.40;99.90;;;;;;4885513;29;20331;-71
2023/03/08 03:30:08;;;;;;;8.43;1.00;;;2.40;99.90;;;;;;4885403;29;20041;-71
2023/03/08 03:32:34;;;;;;;2.80;0.70;;;2.40;99.90;;;;;;4885088;29;20072;-71
2023/03/08 03:35:00;;;;;;;2.17;0.43;;;2.40;99.90;;;;;;4885051;29;20446;-71
2023/03/08 03:37:26;;;;;;;4.82;0.82;;;2.40;99.90;;;;;;4885484;29;20104;-71
2023/03/08 03:39:51;;;;;;;3.40;0.77;;;2.40;99.90;;;;;;4884979;29;20063;-71
2023/03/08 03:42:17;;;;;;;3.55;0.68;;;2.40;99.90;;;;;;4885163;29;20044;-71
2023/03/08 03:44:43;;;;;;;1.05;0.55;;;2.40;99.90;;;;;;4885217;29;20126;-71
2023/03/08 03:47:09;;;;;;;6.93;0.70;;;2.40;99.90;;;;;;4884826;29;20037;-71
2023/03/08 03:49:35;;;;;;;2.40;0.47;;;2.50;99.90;;;;;;4885124;29;20123;-71
2023/03/08 03:52:00;;;;;;;3.58;0.60;;;2.40;99.90;;;;;;4885069;29;20104;-71
2023/03/08 03:54:26;;;;;;;2.17;0.50;;;2.40;99.90;;;;;;4884728;29;20419;-71
2023/03/08 03:56:54;;;;;;;1.85;0.63;;;2.40;99.90;;;;;;4884980;29;20084;-71
2023/03/08 03:59:19;;;;;;;2.38;0.73;;;2.30;99.90;;;;;;4884646;29;20053;-71
2023/03/08 04:01:45;;;;;;;4.47;1.00;;;2.40;99.90;;;;;;4884859;29;20053;-71
2023/03/08 04:04:11;;;;;;;1.95;0.60;;;2.40;99.90;;;;;;4884820;29;20062;-71
2023/03/08 04:06:38;;;;;;;3.17;0.60;;;2.40;99.90;;;;;;4884857;29;20052;-71
2023/03/08 04:09:07;;;;;;;2.50;0.40;;;2.50;99.90;;;;;;4868359;29;20041;-71
2023/03/08 04:11:35;;;;;;;4.10;0.80;;;2.50;99.90;;;;;;4884756;29;20037;-71
2023/03/08 04:14:02;;;;;;;3.33;0.55;;;2.50;99.90;;;;;;4884660;29;20147;-71
2023/03/08 04:16:30;;;;;;;4.93;0.73;;;2.50;99.90;;;;;;4883556;29;20089;-72
2023/03/08 04:18:58;;;;;;;4.38;0.65;;;2.50;99.90;;;;;;4883182;29;20057;-71
2023/03/08 04:21:24;;;;;;;2.00;0.60;;;2.50;99.90;;;;;;4884480;29;20041;-71
2023/03/08 04:23:50;;;;;;;1.90;0.40;;;2.40;99.90;;;;;;4884125;29;20041;-71
2023/03/08 04:26:16;;;;;;;2.60;0.57;;;2.50;99.90;;;;;;4884235;29;20116;-71
2023/03/08 04:28:42;;;;;;;2.88;0.43;;;2.40;99.90;;;;;;4884122;29;20424;-71
2023/03/08 04:31:16;;;;;;;1.48;0.40;;;2.40;99.90;;;;;;4884382;29;20044;-71
2023/03/08 04:33:44;;;;;;;2.80;0.60;;;2.40;99.90;;;;;;4884060;29;20044;-71
2023/03/08 04:36:10;;;;;;;2.70;0.80;;;2.40;99.90;;;;;;4884253;29;20060;-71
2023/03/08 04:38:36;;;;;;;3.00;0.68;;;2.50;99.90;;;;;;4884672;29;20105;-71
2023/03/08 04:41:10;;;;;;;1.55;0.52;;;2.50;99.90;;;;;;4884118;29;20048;-71
2023/03/08 04:43:42;;;;;;;2.55;0.50;;;2.50;99.90;;;;;;4884235;29;20391;-71
2023/03/08 04:46:08;;;;;;;3.10;0.90;;;2.50;99.90;;;;;;4884161;29;20328;-71
2023/03/08 04:48:34;;;;;;;2.75;0.50;;;2.50;99.90;;;;;;4851947;29;20049;-71
2023/03/08 04:51:02;;;;;;;3.30;0.70;;;2.40;99.90;;;;;;4883740;29;20443;-71
2023/03/08 04:53:28;;;;;;;1.33;0.57;;;2.40;99.90;;;;;;4884039;29;20080;-71
2023/03/08 04:55:55;;;;;;;3.15;0.52;;;2.40;99.90;;;;;;4883949;29;20045;-71
2023/03/08 04:58:21;;;;;;;1.65;0.55;;;2.50;99.90;;;;;;4883565;29;20049;-71
2023/03/08 05:00:47;;;;;;;4.38;0.50;;;2.50;99.90;;;;;;4883510;29;20402;-71
2023/03/08 05:03:13;;;;;;;2.72;0.60;;;2.50;99.90;;;;;;4883798;29;20128;-71
2023/03/08 05:05:53;;;;;;;3.13;0.70;;;2.40;99.90;;;;;;4883805;29;20041;-71
2023/03/08 05:08:19;;;;;;;19.38;1.23;;;2.50;99.90;;;;;;4883707;29;20041;-71
2023/03/08 05:10:56;;;;;;;5.38;0.70;;;2.50;99.90;;;;;;4883610;29;20128;-71
2023/03/08 05:13:23;;;;;;;3.05;0.60;;;2.50;99.90;;;;;;4866968;29;20359;-71
2023/03/08 05:15:49;;;;;;;2.10;0.60;;;2.50;99.90;;;;;;4883188;29;20487;-71
2023/03/08 05:18:14;;;;;;;2.95;0.50;;;2.40;99.90;;;;;;4882595;29;20073;-71
2023/03/08 05:20:40;;;;;;;4.47;1.02;;;2.40;99.90;;;;;;4883291;29;20060;-71
2023/03/08 05:23:06;;;;;;;3.22;0.70;;;2.40;99.90;;;;;;4883347;29;20134;-71
2023/03/08 05:25:32;;;;;;;3.15;0.60;;;2.50;99.90;;;;;;4866580;29;20186;-71
2023/03/08 05:27:58;;;;;;;1.83;0.50;;;2.40;99.90;;;;;;4883368;29;20052;-71
2023/03/08 05:30:24;;;;;;;5.15;0.80;;;2.30;99.90;;;;;;4883351;29;20135;-71
2023/03/08 05:32:50;;;;;;;3.55;0.63;;;2.20;99.90;;;;;;4866639;29;20170;-71
2023/03/08 05:35:16;;;;;;;1.55;1.05;;;2.20;99.90;;;;;;4882685;29;20238;-71
2023/03/08 05:37:41;;;;;;;1.38;0.68;;;2.20;99.90;;;;;;4883280;29;20041;-71
2023/03/08 05:40:08;;;;;;;4.47;0.68;;;2.10;99.90;;;;;;4883248;29;20041;-71
2023/03/08 05:42:34;;;;;;;1.35;0.70;;;2.10;99.90;;;;;;4882829;29;20053;-71
2023/03/08 05:44:59;;;;;;;1.02;0.50;;;2.10;99.90;;;;;;4883157;29;20044;-71
2023/03/08 05:47:25;;;;;;;2.28;0.70;;;2.10;99.90;;;;;;4882753;29;20041;-71
2023/03/08 05:49:51;;;;;;;6.50;1.10;;;2.10;99.90;;;;;;4883081;29;20037;-71
2023/03/08 05:52:17;;;;;;;3.13;0.75;;;2.10;99.90;;;;;;4883099;29;20350;-71
2023/03/08 05:54:42;;;;;;;4.63;0.73;;;2.10;99.90;;;;;;4883065;29;20040;-71
2023/03/08 05:57:08;;;;;;;4.68;1.02;;;2.20;99.90;;;;;;4883006;29;20041;-71
2023/03/08 05:59:34;;;;;;;6.88;0.90;;;2.20;99.90;;;;;;4882986;29;20435;-71
2023/03/08 06:01:59;;;;;;;3.78;1.00;;;2.20;99.90;;;;;;4882888;29;20444;-71
2023/03/08 06:04:25;;;;;;;3.47;0.75;;;2.20;99.90;;;;;;4882885;29;20491;-71
2023/03/08 06:06:51;;;;;;;5.85;1.05;;;2.20;99.90;;;;;;4882593;29;20373;-71
2023/03/08 06:09:16;;;;;;;1.92;0.75;;;2.10;99.90;;;;;;4882616;29;20128;-71
2023/03/08 06:11:42;;;;;;;1.83;0.80;;;2.20;99.90;;;;;;4882570;29;20048;-71
2023/03/08 06:14:08;;;;;;;2.40;0.80;;;2.20;99.90;;;;;;4882558;29;20033;-71
2023/03/08 06:16:33;;;;;;;4.13;1.02;;;2.20;99.90;;;;;;4882812;29;20044;-71
2023/03/08 06:19:00;;;;;;;6.05;2.10;;;2.20;99.90;;;;;;4882014;29;20566;-71
2023/03/08 06:21:26;;;;;;;7.55;1.70;;;2.20;99.90;;;;;;4882719;29;20059;-71
2023/03/08 06:23:52;;;;;;;3.50;1.70;;;2.20;99.90;;;;;;4882449;29;20431;-71
2023/03/08 06:26:18;;;;;;;3.97;1.40;;;2.10;99.90;;;;;;4882701;29;20041;-71
2023/03/08 06:28:44;;;;;;;4.25;1.90;;;2.10;99.90;;;;;;4882429;29;20484;-71
2023/03/08 06:31:15;;;;;;;3.35;1.67;;;2.20;99.90;;;;;;4882712;29;20053;-71
2023/03/08 06:33:41;;;;;;;5.85;2.60;;;2.10;99.90;;;;;;4882425;29;20049;-71
2023/03/08 06:36:11;;;;;;;6.63;1.58;;;2.20;99.90;;;;;;4882641;29;20040;-72
2023/03/08 06:38:38;;;;;;;3.95;1.58;;;2.20;99.90;;;;;;4865923;29;20087;-71
2023/03/08 06:41:05;;;;;;;3.25;1.85;;;2.20;99.90;;;;;;4882580;29;20068;-71
2023/03/08 06:43:31;;;;;;;6.22;2.00;;;2.30;99.90;;;;;;4882631;29;20047;-71
2023/03/08 06:45:56;;;;;;;4.75;2.50;;;2.30;99.90;;;;;;4882720;29;20435;-71
2023/03/08 06:48:22;;;;;;;5.65;2.20;;;2.40;99.90;;;;;;4885764;29;20040;-71
2023/03/08 06:50:48;;;;;;;6.15;2.20;;;2.40;99.90;;;;;;4886183;29;20080;-71
2023/03/08 06:53:14;;;;;;;4.63;2.38;;;2.40;99.90;;;;;;4886114;29;20339;-71
2023/03/08 06:55:40;;;;;;;5.82;2.05;;;2.50;99.90;;;;;;4886046;29;20049;-71
2023/03/08 06:58:07;;;;;;;5.68;2.30;;;2.50;99.90;;;;;;4885721;29;20454;-71
2023/03/08 07:00:33;;;;;;;7.22;2.10;;;2.50;99.90;;;;;;4885929;29;20045;-71
2023/03/08 07:02:59;;;;;;;4.88;2.20;;;2.50;99.90;;;;;;4885978;29;20045;-71
2023/03/08 07:05:25;;;;;;;3.78;2.40;;;2.40;99.90;;;;;;4885923;29;20045;-72
2023/03/08 07:07:51;;;;;;;6.30;2.63;;;2.50;99.90;;;;;;4885870;29;20132;-71
2023/03/08 07:10:21;;;;;;;5.00;3.13;;;2.60;99.90;;;;;;4885538;29;20399;-71
2023/03/08 07:12:50;;;;;;;8.07;4.47;;;2.70;99.90;;;;;;4886124;29;20049;-71
2023/03/08 07:15:18;;;;;;;12.95;4.13;;;2.70;99.90;;;;;;4885764;29;20048;-67
2023/03/08 07:17:45;;;;;;;8.38;4.90;;;2.70;99.90;;;;;;4850149;29;20348;-66
2023/03/08 07:20:13;;;;;;;8.18;4.53;;;2.80;99.90;;;;;;4866780;29;20520;-68
2023/03/08 07:22:43;;;;;;;8.25;4.50;;;2.90;99.90;;;;;;4866051;29;20359;-67
2023/03/08 07:25:14;;;;;;;7.85;4.93;;;2.90;99.90;;;;;;4867011;29;20050;-68
2023/03/08 07:27:40;;;;;;;10.82;5.15;;;2.90;99.90;;;;;;4866720;29;20048;-67
2023/03/08 07:30:10;;;;;;;9.18;4.70;;;2.90;99.90;;;;;;4866938;29;20042;-67
2023/03/08 07:32:38;;;;;;;13.80;5.07;;;3.00;99.90;;;;;;4866857;29;20081;-66
2023/03/08 07:35:05;;;;;;;6.75;4.38;;;2.80;99.90;;;;;;4866848;29;20045;-66
2023/03/08 07:37:31;;;;;;;7.75;4.93;;;2.90;99.90;;;;;;4866802;29;20049;-66
2023/03/08 07:39:57;;;;;;;10.48;4.85;;;3.00;99.90;;;;;;4866766;29;20085;-66
2023/03/08 07:42:23;;;;;;;12.05;6.32;;;3.10;99.90;;;;;;4865410;29;20090;-66
2023/03/08 07:44:49;;;;;;;8.27;5.35;;;3.20;99.90;;;;;;4866641;29;20421;-67
2023/03/08 07:47:14;;;;;;;10.45;4.95;;;3.20;99.90;;;;;;4865992;29;20392;-66
2023/03/08 07:49:40;;;;;;;12.15;5.68;;;3.30;99.90;;;;;;4866253;29;20059;-66
2023/03/08 07:52:06;;;;;;;8.88;4.88;;;3.40;99.90;;;;;;4865599;29;20045;-67
2023/03/08 07:54:31;;;;;;;10.07;5.30;;;3.50;99.90;;;;;;4866495;29;20343;-66
2023/03/08 07:56:57;;;;;;;14.13;6.07;;;3.60;99.90;;;;;;4866434;29;20050;-67
2023/03/08 07:59:23;;;;;;;9.95;5.78;;;3.40;99.90;;;;;;4865711;29;20432;-67
2023/03/08 08:01:49;;;;;;;13.43;6.38;;;3.40;99.90;;;;;;4866293;29;20049;-68
2023/03/08 08:04:15;;;;;;;9.43;5.47;;;3.50;99.90;;;;;;4866271;29;20042;-67
2023/03/08 08:06:40;;;;;;;9.63;5.50;;;3.40;99.90;;;;;;4866245;29;20068;-67
2023/03/08 08:09:07;;;;;;;9.57;5.78;;;3.40;99.90;;;;;;4865890;29;20045;-67
2023/03/08 08:11:33;;;;;;;10.38;6.07;;;3.50;99.90;;;;;;4866217;29;20060;-67
2023/03/08 08:14:00;;;;;;;10.38;6.30;;;3.10;99.90;;;;;;4866198;29;20343;-66
2023/03/08 08:16:26;;;;;;;10.70;5.97;;;3.00;99.90;;;;;;4865944;29;20092;-67
2023/03/08 08:18:53;;;;;;;9.85;5.50;;;3.00;99.90;;;;;;4882681;29;20096;-67
2023/03/08 08:21:19;;;;;;;13.30;7.03;;;3.10;99.90;;;;;;4884474;29;20057;-66
2023/03/08 08:23:45;;;;;;;11.43;6.82;;;3.20;99.90;;;;;;4884515;29;20065;-67
2023/03/08 08:26:21;;;;;;;17.27;9.82;;;3.10;99.90;;;;;;4884468;29;20117;-68
2023/03/08 08:28:51;;;;;;;14.88;9.73;;;3.20;99.90;;;;;;4884518;29;20106;-67
2023/03/08 08:31:19;;;;;;;16.95;10.43;;;3.40;99.90;;;;;;4884119;29;20430;-67
2023/03/08 08:33:44;;;;;;;13.90;8.70;;;3.60;99.90;;;;;;4884388;29;20041;-67
2023/03/08 08:36:14;;;;;;;14.60;8.55;;;3.80;99.90;;;;;;4884302;29;20450;-67
2023/03/08 08:38:39;;;;;;;11.63;6.28;;;3.90;99.90;;;;;;4884275;29;20049;-67
2023/03/08 08:41:07;;;;;;;9.68;6.28;;;4.00;99.90;;;;;;4884156;29;20174;-67
2023/03/08 08:43:34;;;;;;;9.55;5.95;;;3.90;99.90;;;;;;4884136;29;20036;-67
2023/03/08 08:46:01;;;;;;;11.85;5.93;;;3.90;99.90;;;;;;4884181;29;20053;-67
2023/03/08 08:48:27;;;;;;;12.90;5.78;;;4.00;99.90;;;;;;4883380;29;20041;-67
2023/03/08 08:50:53;;;;;;;9.27;5.80;;;4.10;99.90;;;;;;4883705;29;20052;-67
2023/03/08 08:53:21;;;;;;;9.32;5.45;;;4.00;99.90;;;;;;4867378;29;20539;-67
2023/03/08 08:55:47;;;;;;;9.25;5.43;;;4.00;99.90;;;;;;4883633;29;20100;-66
2023/03/08 08:58:13;;;;;;;8.27;5.45;;;4.10;99.90;;;;;;4883908;29;20049;-66
2023/03/08 09:00:39;;;;;;;12.65;6.47;;;4.10;99.90;;;;;;4883825;29;20383;-72
2023/03/08 09:03:05;;;;;;;10.05;5.38;;;4.10;99.90;;;;;;4883818;29;20045;-67
2023/03/08 09:05:33;;;;;;;10.73;5.00;;;4.10;99.90;;;;;;4883798;29;20037;-67
2023/03/08 09:08:00;;;;;;;10.63;5.40;;;4.10;99.90;;;;;;4883443;29;20495;-67
2023/03/08 09:10:28;;;;;;;8.45;5.00;;;4.10;99.90;;;;;;4882704;29;20041;-67
2023/03/08 09:12:54;;;;;;;10.13;5.70;;;4.00;99.90;;;;;;4883685;29;20116;-67
2023/03/08 09:15:20;;;;;;;10.98;5.13;;;4.10;99.90;;;;;;4883340;29;20442;-67
2023/03/08 09:17:47;;;;;;;12.15;5.47;;;4.40;99.90;;;;;;4882924;29;20093;-68
2023/03/08 09:20:12;;;;;;;8.00;4.97;;;4.50;99.90;;;;;;4867019;29;20346;-68
2023/03/08 09:22:39;;;;;;;10.13;5.45;;;4.60;99.90;;;;;;4883419;29;20049;-68
2023/03/08 09:25:06;;;;;;;6.75;4.10;;;4.60;99.90;;;;;;4883117;29;20037;-66
2023/03/08 09:27:32;;;;;;;9.38;4.65;;;4.80;99.90;;;;;;4883115;29;20128;-67
2023/03/08 09:29:58;;;;;;;7.38;4.10;;;4.80;99.90;;;;;;4883366;29;20041;-67
2023/03/08 09:32:25;;;;;;;10.25;4.40;;;4.80;99.90;;;;;;4876042;29;20100;-67
2023/03/08 09:34:52;;;;;;;8.05;4.07;;;4.80;99.90;;;;;;4875020;29;20053;-67
2023/03/08 09:37:18;;;;;;;6.88;4.30;;;4.80;99.90;;;;;;4866715;29;20082;-66
2023/03/08 09:39:50;;;;;;;7.75;3.80;;;4.80;99.90;;;;;;4865448;29;20049;-65
2023/03/08 09:42:23;;;;;;;4.93;3.25;;;4.70;99.90;;;;;;4864437;29;20045;-67
2023/03/08 09:45:00;;;;;;;6.32;3.22;;;4.80;99.90;;;;;;4873601;29;20067;-67
2023/03/08 09:47:45;;;;;;;10.60;4.53;;;4.70;99.90;;;;;;4882624;29;20064;-67
2023/03/08 09:50:10;;;;;;;7.95;3.53;;;4.90;99.90;;;;;;4878824;29;20108;-67
2023/03/08 09:52:49;;;;;;;5.55;2.90;;;5.00;99.90;;;;;;4864335;29;20496;-67
2023/03/08 09:55:30;;;;;;;6.93;3.55;;;5.10;99.90;;;;;;4864217;29;20041;-67
2023/03/08 09:58:04;;;;;;;5.18;3.15;;;5.30;99.90;;;;;;4847713;29;20123;-66
2023/03/08 10:00:37;;;;;;;7.40;4.07;;;5.40;99.90;;;;;;4848810;29;20052;-67
2023/03/08 10:03:12;;;;;;;7.82;3.63;;;5.30;99.90;;;;;;4882591;29;20045;-68
2023/03/08 10:05:48;;;;;;;6.38;3.83;;;5.40;99.90;;;;;;4882671;29;20104;-67
2023/03/08 10:08:24;;;;;;;6.88;4.00;;;5.50;99.90;;;;;;4882791;29;20094;-67
2023/03/08 10:10:55;;;;;;;5.05;3.00;;;5.70;99.90;;;;;;4882795;29;20343;-66
2023/03/08 10:13:39;;;;;;;4.82;2.40;;;5.90;99.90;;;;;;4882636;29;20053;-66
2023/03/08 10:16:22;;;;;;;7.78;2.20;;;6.10;99.90;;;;;;4865876;29;20316;-68
2023/03/08 10:19:01;;;;;;;5.03;2.42;;;5.80;99.90;;;;;;4872695;29;20069;-70
2023/03/08 10:21:30;;;;;;;3.88;2.10;;;5.80;99.90;;;;;;4864564;29;20369;-68
2023/03/08 10:24:33;;;;;;;6.57;2.15;;;5.80;99.90;;;;;;4880221;29;20116;-70
2023/03/08 10:27:32;;;;;;;4.43;1.60;;;5.90;99.90;;;;;;4886428;29;20041;-67
2023/03/08 10:30:00;;;;;;;2.60;1.52;;;6.20;99.90;;;;;;4846041;29;20059;-66
2023/03/08 10:32:27;;;;;;;4.32;2.30;;;6.20;99.90;;;;;;4886252;29;20041;-67
2023/03/08 10:35:00;;;;;;;5.05;2.22;;;6.30;99.90;;;;;;4886182;29;20045;-67
2023/03/08 10:37:31;;;;;;;4.15;2.25;;;6.40;99.90;;;;;;4886491;29;20084;-67
2023/03/08 10:40:02;;;;;;;8.27;2.15;;;6.40;99.90;;;;;;4873684;29;20083;-67
2023/03/08 10:42:30;;;;;;;8.10;2.60;;;6.40;99.90;;;;;;4870251;29;20073;-68
2023/03/08 10:45:24;;;;;;;6.13;2.53;;;6.50;99.90;;;;;;4878915;29;20040;-67
2023/03/08 10:48:18;;;;;;;6.70;1.98;;;6.50;99.90;;;;;;4879884;29;20528;-67
2023/03/08 10:50:44;;;;;;;4.13;1.70;;;6.80;99.90;;;;;;4869413;29;20309;-68
2023/03/08 10:53:19;;;;;;;3.85;1.60;;;6.80;99.90;;;;;;4884840;29;20100;-70
2023/03/08 10:55:56;;;;;;;5.68;1.40;;;7.10;99.90;;;;;;4869552;29;20053;-68
2023/03/08 10:58:33;;;;;;;3.45;1.27;;;7.30;99.90;;;;;;4886112;29;20052;-66
2023/03/08 11:01:03;;;;;;;6.38;1.60;;;7.40;99.90;;;;;;4885666;29;20439;-66
2023/03/08 11:03:29;;;;;;;1.92;1.13;;;7.40;99.90;;;;;;4854131;29;20053;-67
2023/03/08 11:06:13;;;;;;;4.63;0.77;;;7.40;99.90;;;;;;4885927;29;20041;-68
2023/03/08 11:08:50;;;;;;;3.42;0.90;;;7.40;99.90;;;;;;4869195;29;20125;-66
2023/03/08 11:11:15;;;;;;;6.47;1.00;;;7.40;99.90;;;;;;4876745;29;20121;-68
2023/03/08 11:13:45;;;;;;;3.65;0.80;;;7.20;99.90;;;;;;4879618;29;20435;-67
2023/03/08 11:16:32;;;;;;;2.50;0.63;;;7.40;99.90;;;;;;4885417;29;20120;-67
2023/03/08 11:19:34;;;;;;;1.98;0.47;;;7.50;99.90;;;;;;4884676;29;20171;-68
2023/03/08 11:22:24;;;;;;;4.90;1.42;;;7.30;99.90;;;;;;4867092;29;20057;-67
2023/03/08 11:24:49;;;;;;;5.03;1.50;;;7.00;99.90;;;;;;4874909;29;20041;-67
2023/03/08 11:27:18;;;;;;;4.18;0.88;;;7.20;99.90;;;;;;4881514;29;20045;-68
2023/03/08 11:29:50;;;;;;;1.55;0.50;;;7.10;99.90;;;;;;4873522;29;20438;-66
2023/03/08 11:32:54;;;;;;;4.25;1.42;;;7.20;99.90;;;;;;4850442;29;20056;-72
2023/03/08 11:35:36;;;;;;;2.35;0.93;;;7.20;99.90;;;;;;4866619;29;20056;-70
2023/03/08 11:38:11;;;;;;;1.63;0.93;;;6.90;99.90;;;;;;4866662;29;20180;-69
2023/03/08 11:40:52;;;;;;;3.17;1.10;;;6.50;99.90;;;;;;4866562;29;20057;-71
2023/03/08 11:43:39;;;;;;;4.55;1.05;;;6.20;99.90;;;;;;4868398;29;20077;-76
2023/03/08 11:46:14;;;;;;;4.53;0.73;;;6.10;99.90;;;;;;4884889;29;20423;-66
2023/03/08 11:49:12;;;;;;;2.63;0.73;;;6.30;99.90;;;;;;4884396;29;20361;-68
2023/03/08 11:51:55;;;;;;;2.55;1.20;;;6.80;99.90;;;;;;4884950;29;20056;-67
2023/03/08 11:54:46;;;;;;;4.10;0.90;;;7.20;99.90;;;;;;4891156;29;20092;-64
2023/03/08 11:57:14;;;;;;;3.63;1.02;;;7.30;99.90;;;;;;4903445;29;20127;-66
2023/03/08 11:59:59;;;;;;;3.67;0.90;;;7.40;99.90;;;;;;4887075;29;20399;-70
2023/03/08 12:02:33;;;;;;;2.38;1.20;;;7.40;99.90;;;;;;4903671;29;20054;-70
2023/03/08 12:05:17;;;;;;;3.42;1.15;;;7.50;99.90;;;;;;4903700;29;20045;-67
2023/03/08 12:07:47;;;;;;;2.97;1.27;;;7.70;99.90;;;;;;4903604;29;20044;-70
2023/03/08 12:10:23;;;;;;;2.53;1.30;;;7.70;99.90;;;;;;4903312;29;20047;-67
2023/03/08 12:12:58;;;;;;;4.77;1.43;;;7.70;99.90;;;;;;4903588;29;20376;-67
2023/03/08 12:15:45;;;;;;;2.38;1.20;;;7.50;99.90;;;;;;4903211;29;20048;-68
2023/03/08 12:18:31;;;;;;;3.00;1.33;;;7.70;99.90;;;;;;4900698;29;20072;-67
2023/03/08 12:21:13;;;;;;;4.63;1.15;;;7.70;99.90;;;;;;4903396;29;20084;-67
2023/03/08 12:23:46;;;;;;;4.95;1.27;;;7.70;99.90;;;;;;4903415;29;20111;-67
2023/03/08 12:26:20;;;;;;;4.88;1.52;;;7.80;99.90;;;;;;4903319;29;20044;-67
2023/03/08 12:29:00;;;;;;;4.45;1.88;;;8.00;99.90;;;;;;4902897;29;20059;-67
2023/03/08 12:31:37;;;;;;;5.07;2.70;;;8.00;99.90;;;;;;4903238;29;20041;-67
2023/03/08 12:34:13;;;;;;;6.20;2.67;;;8.00;99.90;;;;;;4903165;29;20045;-67
2023/03/08 12:36:42;;;;;;;4.50;2.58;;;8.00;99.90;;;;;;4903133;29;20048;-66
2023/03/08 12:39:32;;;;;;;6.30;2.65;;;8.10;99.90;;;;;;4902725;29;20055;-68
2023/03/08 12:42:35;;;;;;;8.10;3.28;;;8.20;99.90;;;;;;4902969;29;20332;-67
2023/03/08 12:45:26;;;;;;;6.82;2.78;;;8.00;99.90;;;;;;4902420;29;20423;-66
2023/03/08 12:48:03;;;;;;;6.65;2.88;;;8.00;99.90;;;;;;4893490;29;20104;-69
2023/03/08 12:50:37;;;;;;;6.10;3.28;;;8.20;99.90;;;;;;4902836;29;20040;-67
2023/03/08 12:53:20;;;;;;;7.03;2.92;;;8.10;99.90;;;;;;4902792;29;20054;-67
2023/03/08 12:56:01;;;;;;;8.50;2.70;;;8.20;99.90;;;;;;4902723;29;20048;-67
2023/03/08 12:58:27;;;;;;;7.70;3.00;;;8.20;99.90;;;;;;4902694;29;20128;-67
2023/03/08 13:01:02;;;;;;;6.68;2.90;;;8.30;99.90;;;;;;4902555;29;20100;-67
2023/03/08 13:03:40;;;;;;;7.72;2.75;;;7.90;99.90;;;;;;4902570;29;20108;-67
2023/03/08 13:06:40;;;;;;;18.42;3.88;;;8.00;99.90;;;;;;4902689;29;20308;-67
2023/03/08 13:09:20;;;;;;;5.00;2.10;;;8.30;99.90;;;;;;4902483;29;20059;-67
2023/03/08 13:11:53;;;;;;;32.42;4.78;;;8.30;99.90;;;;;;4902441;29;20128;-67
2023/03/08 13:14:41;;;;;;;12.65;2.72;;;8.20;99.90;;;;;;4902421;29;20070;-67
2023/03/08 13:17:28;;;;;;;3.83;1.95;;;8.60;99.90;;;;;;4902170;29;20055;-67
2023/03/08 13:19:54;;;;;;;9.43;2.70;;;8.70;99.90;;;;;;4902301;29;20044;-67
2023/03/08 13:22:46;;;;;;;7.97;2.30;;;8.50;99.90;;;;;;4885623;29;20103;-67
2023/03/08 13:25:34;;;;;;;3.75;1.85;;;8.50;99.90;;;;;;4892095;29;20060;-67
2023/03/08 13:28:05;;;;;;;4.85;1.50;;;8.60;99.90;;;;;;4902156;29;20144;-67